sensor_id;sensor_type;location;lat;lon;timestamp;temperature;humidity
7240;DHT22;3661;53.288;10.458;2024-01-30T00:01:42;4.10;99.90
7240;DHT22;3661;53.288;10.458;2024-01-30T00:04:14;4.00;99.90
7240;DHT22;3661;53.288;10.458;2024-01-30T00:06:47;4.00;99.90
7240;DHT22;3661;53.288;10.458;2024-01-30T00:09:21;4.00;99.90
7240;DHT22;3661;53.288;10.458;2024-01-30T00:11:53;4.00;99.90
7240;DHT22;3661;53.288;10.458;2024-01-30T00:14:25;4.00;99.90
7240;DHT22;3661;53.288;10.458;2024-01-30T00:16:57;4.00;99.90
7240;DHT22;3661;53.288;10.458;2024-01-30T00:19:29;4.00;99.90
7240;DHT22;3661;53.288;10.458;2024-01-30T00:22:01;3.90;99.90
7240;DHT22;3661;53.288;10.458;2024-01-30T00:24:34;4.00;99.90
7240;DHT22;3661;53.288;10.458;2024-01-30T00:27:07;3.90;99.90
7240;DHT22;3661;53.288;10.458;2024-01-30T00:29:39;3.90;99.90
7240;DHT22;3661;53.288;10.458;2024-01-30T00:32:11;3.90;99.90
7240;DHT22;3661;53.288;10.458;2024-01-30T00:34:43;3.90;99.90
7240;DHT22;3661;53.288;10.458;2024-01-30T00:37:15;3.90;99.90
7240;DHT22;3661;53.288;10.458;2024-01-30T00:39:49;3.90;99.90
7240;DHT22;3661;53.288;10.458;2024-01-30T00:42:21;3.90;99.90
7240;DHT22;3661;53.288;10.458;2024-01-30T00:44:54;3.90;99.90
7240;DHT22;3661;53.288;10.458;2024-01-30T00:47:26;3.80;99.90
7240;DHT22;3661;53.288;10.458;2024-01-30T00:49:59;3.80;99.90
7240;DHT22;3661;53.288;10.458;2024-01-30T00:52:31;3.80;99.90
7240;DHT22;3661;53.288;10.458;2024-01-30T00:55:06;3.80;99.90
7240;DHT22;3661;53.288;10.458;2024-01-30T00:57:38;3.80;99.90
7240;DHT22;3661;53.288;10.458;2024-01-30T01:00:11;3.80;99.90
7240;DHT22;3661;53.288;10.458;2024-01-30T01:02:44;3.80;99.90
7240;DHT22;3661;53.288;10.458;2024-01-30T01:05:16;3.80;99.90
7240;DHT22;3661;53.288;10.458;2024-01-30T01:07:48;3.80;99.90
7240;DHT22;3661;53.288;10.458;2024-01-30T01:10:22;3.80;99.90
7240;DHT22;3661;53.288;10.458;2024-01-30T01:12:54;3.80;99.90
7240;DHT22;3661;53.288;10.458;2024-01-30T01:15:26;3.70;99.90
7240;DHT22;3661;53.288;10.458;2024-01-30T01:17:58;3.80;99.90
7240;DHT22;3661;53.288;10.458;2024-01-30T01:20:30;3.70;99.90
7240;DHT22;3661;53.288;10.458;2024-01-30T01:23:02;3.70;99.90
7240;DHT22;3661;53.288;10.458;2024-01-30T01:25:36;3.70;99.90
7240;DHT22;3661;53.288;10.458;2024-01-30T01:28:08;3.70;99.90
7240;DHT22;3661;53.288;10.458;2024-01-30T01:30:41;3.70;99.90
7240;DHT22;3661;53.288;10.458;2024-01-30T01:33:13;3.70;99.90
7240;DHT22;3661;53.288;10.458;2024-01-30T01:35:46;3.70;99.90
7240;DHT22;3661;53.288;10.458;2024-01-30T01:38:19;3.70;99.90
7240;DHT22;3661;53.288;10.458;2024-01-30T01:40:52;3.70;99.90
7240;DHT22;3661;53.288;10.458;2024-01-30T01:43:25;3.70;99.90
7240;DHT22;3661;53.288;10.458;2024-01-30T01:45:58;3.70;99.90
7240;DHT22;3661;53.288;10.458;2024-01-30T01:48:30;3.70;99.90
7240;DHT22;3661;53.288;10.458;2024-01-30T01:51:02;3.70;99.90
7240;DHT22;3661;53.288;10.458;2024-01-30T01:53:36;3.70;99.90
7240;DHT22;3661;53.288;10.458;2024-01-30T01:56:09;3.70;99.90
7240;DHT22;3661;53.288;10.458;2024-01-30T01:58:42;3.70;99.90
7240;DHT22;3661;53.288;10.458;2024-01-30T02:01:16;3.70;99.90
7240;DHT22;3661;53.288;10.458;2024-01-30T02:03:50;3.70;99.90
7240;DHT22;3661;53.288;10.458;2024-01-30T02:06:23;3.70;99.90
7240;DHT22;3661;53.288;10.458;2024-01-30T02:08:55;3.70;99.90
7240;DHT22;3661;53.288;10.458;2024-01-30T02:11:29;3.70;99.90
7240;DHT22;3661;53.288;10.458;2024-01-30T02:14:02;3.70;99.90
7240;DHT22;3661;53.288;10.458;2024-01-30T02:16:35;3.70;99.90
7240;DHT22;3661;53.288;10.458;2024-01-30T02:19:08;3.70;99.90
7240;DHT22;3661;53.288;10.458;2024-01-30T02:21:41;3.70;99.90
7240;DHT22;3661;53.288;10.458;2024-01-30T02:24:14;3.70;99.90
7240;DHT22;3661;53.288;10.458;2024-01-30T02:26:47;3.70;99.90
7240;DHT22;3661;53.288;10.458;2024-01-30T02:29:19;3.70;99.90
7240;DHT22;3661;53.288;10.458;2024-01-30T02:31:52;3.70;99.90
7240;DHT22;3661;53.288;10.458;2024-01-30T02:34:24;3.70;99.90
7240;DHT22;3661;53.288;10.458;2024-01-30T02:36:57;3.60;99.90
7240;DHT22;3661;53.288;10.458;2024-01-30T02:39:29;3.60;99.90
7240;DHT22;3661;53.288;10.458;2024-01-30T02:42:01;3.60;99.90
7240;DHT22;3661;53.288;10.458;2024-01-30T02:44:33;3.60;99.90
7240;DHT22;3661;53.288;10.458;2024-01-30T02:47:06;3.60;99.90
7240;DHT22;3661;53.288;10.458;2024-01-30T02:49:38;3.60;99.90
7240;DHT22;3661;53.288;10.458;2024-01-30T02:52:11;3.60;99.90
7240;DHT22;3661;53.288;10.458;2024-01-30T02:54:43;3.60;99.90
7240;DHT22;3661;53.288;10.458;2024-01-30T02:57:15;3.60;99.90
7240;DHT22;3661;53.288;10.458;2024-01-30T02:59:47;3.60;99.90
7240;DHT22;3661;53.288;10.458;2024-01-30T03:02:20;3.60;99.90
7240;DHT22;3661;53.288;10.458;2024-01-30T03:04:52;3.60;99.90
7240;DHT22;3661;53.288;10.458;2024-01-30T03:07:25;3.60;99.90
7240;DHT22;3661;53.288;10.458;2024-01-30T03:09:57;3.60;99.90
7240;DHT22;3661;53.288;10.458;2024-01-30T03:12:29;3.60;99.90
7240;DHT22;3661;53.288;10.458;2024-01-30T03:15:01;3.60;99.90
7240;DHT22;3661;53.288;10.458;2024-01-30T03:17:33;3.60;99.90
7240;DHT22;3661;53.288;10.458;2024-01-30T03:20:08;3.60;99.90
7240;DHT22;3661;53.288;10.458;2024-01-30T03:22:42;3.60;99.90
7240;DHT22;3661;53.288;10.458;2024-01-30T03:25:14;3.60;99.90
7240;DHT22;3661;53.288;10.458;2024-01-30T03:27:47;3.60;99.90
7240;DHT22;3661;53.288;10.458;2024-01-30T03:30:19;3.60;99.90
7240;DHT22;3661;53.288;10.458;2024-01-30T03:32:51;3.60;99.90
7240;DHT22;3661;53.288;10.458;2024-01-30T03:35:23;3.50;99.90
7240;DHT22;3661;53.288;10.458;2024-01-30T03:37:57;3.60;99.90
7240;DHT22;3661;53.288;10.458;2024-01-30T03:40:29;3.50;99.90
7240;DHT22;3661;53.288;10.458;2024-01-30T03:43:01;3.50;99.90
7240;DHT22;3661;53.288;10.458;2024-01-30T03:45:33;3.50;99.90
7240;DHT22;3661;53.288;10.458;2024-01-30T03:48:06;3.60;99.90
7240;DHT22;3661;53.288;10.458;2024-01-30T03:50:38;3.50;99.90
7240;DHT22;3661;53.288;10.458;2024-01-30T03:53:12;3.50;99.90
7240;DHT22;3661;53.288;10.458;2024-01-30T03:55:44;3.50;99.90
7240;DHT22;3661;53.288;10.458;2024-01-30T03:58:16;3.50;99.90
7240;DHT22;3661;53.288;10.458;2024-01-30T04:00:48;3.50;99.90
7240;DHT22;3661;53.288;10.458;2024-01-30T04:03:20;3.50;99.90
7240;DHT22;3661;53.288;10.458;2024-01-30T04:05:52;3.50;99.90
7240;DHT22;3661;53.288;10.458;2024-01-30T04:08:26;3.50;99.90
7240;DHT22;3661;53.288;10.458;2024-01-30T04:10:58;3.50;99.90
7240;DHT22;3661;53.288;10.458;2024-01-30T04:13:32;3.50;99.90
7240;DHT22;3661;53.288;10.458;2024-01-30T04:16:05;3.50;99.90
7240;DHT22;3661;53.288;10.458;2024-01-30T04:18:37;3.50;99.90
7240;DHT22;3661;53.288;10.458;2024-01-30T04:21:09;3.50;99.90
7240;DHT22;3661;53.288;10.458;2024-01-30T04:23:43;3.50;99.90
7240;DHT22;3661;53.288;10.458;2024-01-30T04:26:15;3.50;99.90
7240;DHT22;3661;53.288;10.458;2024-01-30T04:28:48;3.50;99.90
7240;DHT22;3661;53.288;10.458;2024-01-30T04:31:20;3.50;99.90
7240;DHT22;3661;53.288;10.458;2024-01-30T04:33:52;3.50;99.90
7240;DHT22;3661;53.288;10.458;2024-01-30T04:36:24;3.50;99.90
7240;DHT22;3661;53.288;10.458;2024-01-30T04:38:58;3.50;99.90
7240;DHT22;3661;53.288;10.458;2024-01-30T04:41:30;3.50;99.90
7240;DHT22;3661;53.288;10.458;2024-01-30T04:44:03;3.50;99.90
7240;DHT22;3661;53.288;10.458;2024-01-30T04:46:35;3.50;99.90
7240;DHT22;3661;53.288;10.458;2024-01-30T04:49:07;3.50;99.90
7240;DHT22;3661;53.288;10.458;2024-01-30T04:51:39;3.50;99.90
7240;DHT22;3661;53.288;10.458;2024-01-30T04:54:15;3.50;99.90
7240;DHT22;3661;53.288;10.458;2024-01-30T04:56:47;3.50;99.90
7240;DHT22;3661;53.288;10.458;2024-01-30T04:59:19;3.50;99.90
7240;DHT22;3661;53.288;10.458;2024-01-30T05:01:51;3.50;99.90
7240;DHT22;3661;53.288;10.458;2024-01-30T05:04:23;3.50;99.90
7240;DHT22;3661;53.288;10.458;2024-01-30T05:06:55;3.50;99.90
7240;DHT22;3661;53.288;10.458;2024-01-30T05:09:30;3.50;99.90
7240;DHT22;3661;53.288;10.458;2024-01-30T05:12:02;3.50;99.90
7240;DHT22;3661;53.288;10.458;2024-01-30T05:14:34;3.50;99.90
7240;DHT22;3661;53.288;10.458;2024-01-30T05:17:07;3.50;99.90
7240;DHT22;3661;53.288;10.458;2024-01-30T05:19:40;3.50;99.90
7240;DHT22;3661;53.288;10.458;2024-01-30T05:22:12;3.50;99.90
7240;DHT22;3661;53.288;10.458;2024-01-30T05:24:47;3.50;99.90
7240;DHT22;3661;53.288;10.458;2024-01-30T05:27:19;3.50;99.90
7240;DHT22;3661;53.288;10.458;2024-01-30T05:29:51;3.50;99.90
7240;DHT22;3661;53.288;10.458;2024-01-30T05:32:24;3.50;99.90
7240;DHT22;3661;53.288;10.458;2024-01-30T05:34:56;3.50;99.90
7240;DHT22;3661;53.288;10.458;2024-01-30T05:37:28;3.50;99.90
7240;DHT22;3661;53.288;10.458;2024-01-30T05:40:03;3.40;99.90
7240;DHT22;3661;53.288;10.458;2024-01-30T05:42:35;3.40;99.90
7240;DHT22;3661;53.288;10.458;2024-01-30T05:45:09;3.40;99.90
7240;DHT22;3661;53.288;10.458;2024-01-30T05:47:41;3.40;99.90
7240;DHT22;3661;53.288;10.458;2024-01-30T05:50:13;3.40;99.90
7240;DHT22;3661;53.288;10.458;2024-01-30T05:52:45;3.40;99.90
7240;DHT22;3661;53.288;10.458;2024-01-30T05:55:19;3.40;99.90
7240;DHT22;3661;53.288;10.458;2024-01-30T05:57:51;3.40;99.90
7240;DHT22;3661;53.288;10.458;2024-01-30T06:00:23;3.30;99.90
7240;DHT22;3661;53.288;10.458;2024-01-30T06:02:55;3.40;99.90
7240;DHT22;3661;53.288;10.458;2024-01-30T06:05:27;3.30;99.90
7240;DHT22;3661;53.288;10.458;2024-01-30T06:08:00;3.40;99.90
7240;DHT22;3661;53.288;10.458;2024-01-30T06:10:33;3.30;99.90
7240;DHT22;3661;53.288;10.458;2024-01-30T06:13:05;3.30;99.90
7240;DHT22;3661;53.288;10.458;2024-01-30T06:15:37;3.30;99.90
7240;DHT22;3661;53.288;10.458;2024-01-30T06:18:09;3.30;99.90
7240;DHT22;3661;53.288;10.458;2024-01-30T06:20:42;3.30;99.90
7240;DHT22;3661;53.288;10.458;2024-01-30T06:23:14;3.30;99.90
7240;DHT22;3661;53.288;10.458;2024-01-30T06:25:47;3.30;99.90
7240;DHT22;3661;53.288;10.458;2024-01-30T06:28:19;3.30;99.90
7240;DHT22;3661;53.288;10.458;2024-01-30T06:30:51;3.30;99.90
7240;DHT22;3661;53.288;10.458;2024-01-30T06:33:23;3.30;99.90
7240;DHT22;3661;53.288;10.458;2024-01-30T06:35:55;3.30;99.90
7240;DHT22;3661;53.288;10.458;2024-01-30T06:38:27;3.30;99.90
7240;DHT22;3661;53.288;10.458;2024-01-30T06:41:03;3.30;99.90
7240;DHT22;3661;53.288;10.458;2024-01-30T06:43:35;3.30;99.90
7240;DHT22;3661;53.288;10.458;2024-01-30T06:46:14;3.20;99.90
7240;DHT22;3661;53.288;10.458;2024-01-30T06:48:46;3.30;99.90
7240;DHT22;3661;53.288;10.458;2024-01-30T06:51:18;3.20;99.90
7240;DHT22;3661;53.288;10.458;2024-01-30T06:53:50;3.20;99.90
7240;DHT22;3661;53.288;10.458;2024-01-30T06:56:23;3.20;99.90
7240;DHT22;3661;53.288;10.458;2024-01-30T06:58:56;3.20;99.90
7240;DHT22;3661;53.288;10.458;2024-01-30T07:01:29;3.20;99.90
7240;DHT22;3661;53.288;10.458;2024-01-30T07:04:01;3.20;99.90
7240;DHT22;3661;53.288;10.458;2024-01-30T07:06:33;3.20;99.90
7240;DHT22;3661;53.288;10.458;2024-01-30T07:09:05;3.30;99.90
7240;DHT22;3661;53.288;10.458;2024-01-30T07:11:38;3.20;99.90
7240;DHT22;3661;53.288;10.458;2024-01-30T07:14:11;3.30;99.90
7240;DHT22;3661;53.288;10.458;2024-01-30T07:16:43;3.30;99.90
7240;DHT22;3661;53.288;10.458;2024-01-30T07:19:15;3.30;99.90
7240;DHT22;3661;53.288;10.458;2024-01-30T07:21:47;3.30;99.90
7240;DHT22;3661;53.288;10.458;2024-01-30T07:24:19;3.30;99.90
7240;DHT22;3661;53.288;10.458;2024-01-30T07:26:52;3.30;99.90
7240;DHT22;3661;53.288;10.458;2024-01-30T07:29:24;3.30;99.90
7240;DHT22;3661;53.288;10.458;2024-01-30T07:31:58;3.30;99.90
7240;DHT22;3661;53.288;10.458;2024-01-30T07:34:30;3.30;99.90
7240;DHT22;3661;53.288;10.458;2024-01-30T07:37:02;3.30;99.90
7240;DHT22;3661;53.288;10.458;2024-01-30T07:39:34;3.30;99.90
7240;DHT22;3661;53.288;10.458;2024-01-30T07:42:08;3.30;99.90
7240;DHT22;3661;53.288;10.458;2024-01-30T07:44:40;3.40;99.90
7240;DHT22;3661;53.288;10.458;2024-01-30T07:47:12;3.40;99.90
7240;DHT22;3661;53.288;10.458;2024-01-30T07:49:44;3.40;99.90
7240;DHT22;3661;53.288;10.458;2024-01-30T07:52:16;3.40;99.90
7240;DHT22;3661;53.288;10.458;2024-01-30T07:54:48;3.40;99.90
7240;DHT22;3661;53.288;10.458;2024-01-30T07:57:22;3.40;99.90
7240;DHT22;3661;53.288;10.458;2024-01-30T07:59:55;3.40;99.90
7240;DHT22;3661;53.288;10.458;2024-01-30T08:02:27;3.40;99.90
7240;DHT22;3661;53.288;10.458;2024-01-30T08:04:59;3.50;99.90
7240;DHT22;3661;53.288;10.458;2024-01-30T08:07:32;3.50;99.90
7240;DHT22;3661;53.288;10.458;2024-01-30T08:10:04;3.50;99.90
7240;DHT22;3661;53.288;10.458;2024-01-30T08:12:38;3.50;99.90
7240;DHT22;3661;53.288;10.458;2024-01-30T08:15:11;3.50;99.90
7240;DHT22;3661;53.288;10.458;2024-01-30T08:17:44;3.60;99.90
7240;DHT22;3661;53.288;10.458;2024-01-30T08:20:18;3.60;99.90
7240;DHT22;3661;53.288;10.458;2024-01-30T08:22:50;3.60;99.90
7240;DHT22;3661;53.288;10.458;2024-01-30T08:25:22;3.70;99.90
7240;DHT22;3661;53.288;10.458;2024-01-30T08:27:56;3.70;99.90
7240;DHT22;3661;53.288;10.458;2024-01-30T08:30:28;3.70;99.90
7240;DHT22;3661;53.288;10.458;2024-01-30T08:33:01;3.70;99.90
7240;DHT22;3661;53.288;10.458;2024-01-30T08:35:34;3.80;99.90
7240;DHT22;3661;53.288;10.458;2024-01-30T08:38:06;3.80;99.90
7240;DHT22;3661;53.288;10.458;2024-01-30T08:40:38;3.80;99.90
7240;DHT22;3661;53.288;10.458;2024-01-30T08:46:38;3.90;99.90
7240;DHT22;3661;53.288;10.458;2024-01-30T08:52:37;4.00;99.90
7240;DHT22;3661;53.288;10.458;2024-01-30T09:06:11;4.20;99.90
7240;DHT22;3661;53.288;10.458;2024-01-30T09:12:11;4.30;99.90
7240;DHT22;3661;53.288;10.458;2024-01-30T09:18:10;4.40;99.90
7240;DHT22;3661;53.288;10.458;2024-01-30T09:24:10;4.50;99.90
7240;DHT22;3661;53.288;10.458;2024-01-30T09:26:42;4.50;99.90
7240;DHT22;3661;53.288;10.458;2024-01-30T09:29:14;4.60;99.90
7240;DHT22;3661;53.288;10.458;2024-01-30T09:31:46;4.60;99.90
7240;DHT22;3661;53.288;10.458;2024-01-30T09:34:19;4.70;99.90
7240;DHT22;3661;53.288;10.458;2024-01-30T09:36:51;4.70;99.90
7240;DHT22;3661;53.288;10.458;2024-01-30T09:39:24;4.70;99.90
7240;DHT22;3661;53.288;10.458;2024-01-30T09:42:05;4.80;99.90
7240;DHT22;3661;53.288;10.458;2024-01-30T09:44:38;4.90;99.90
7240;DHT22;3661;53.288;10.458;2024-01-30T09:47:15;4.90;99.90
7240;DHT22;3661;53.288;10.458;2024-01-30T09:49:48;5.00;99.90
7240;DHT22;3661;53.288;10.458;2024-01-30T09:52:21;5.00;99.90
7240;DHT22;3661;53.288;10.458;2024-01-30T09:54:59;5.10;99.90
7240;DHT22;3661;53.288;10.458;2024-01-30T09:57:32;5.10;99.90
7240;DHT22;3661;53.288;10.458;2024-01-30T10:00:04;5.20;99.90
7240;DHT22;3661;53.288;10.458;2024-01-30T10:02:39;5.30;99.90
7240;DHT22;3661;53.288;10.458;2024-01-30T10:05:15;5.30;99.90
7240;DHT22;3661;53.288;10.458;2024-01-30T10:07:53;5.40;99.90
7240;DHT22;3661;53.288;10.458;2024-01-30T10:10:27;5.50;99.90
7240;DHT22;3661;53.288;10.458;2024-01-30T10:13:00;5.50;99.90
7240;DHT22;3661;53.288;10.458;2024-01-30T10:15:32;5.60;99.90
7240;DHT22;3661;53.288;10.458;2024-01-30T10:18:06;5.70;99.90
7240;DHT22;3661;53.288;10.458;2024-01-30T10:20:38;5.70;99.90
7240;DHT22;3661;53.288;10.458;2024-01-30T10:23:10;5.80;99.90
7240;DHT22;3661;53.288;10.458;2024-01-30T10:25:44;5.80;99.90
7240;DHT22;3661;53.288;10.458;2024-01-30T10:28:17;5.90;99.90
7240;DHT22;3661;53.288;10.458;2024-01-30T10:30:57;5.90;99.90
7240;DHT22;3661;53.288;10.458;2024-01-30T10:33:30;6.00;99.90
7240;DHT22;3661;53.288;10.458;2024-01-30T10:36:04;6.10;99.90
7240;DHT22;3661;53.288;10.458;2024-01-30T10:38:37;6.10;99.90
7240;DHT22;3661;53.288;10.458;2024-01-30T10:41:13;6.20;99.90
7240;DHT22;3661;53.288;10.458;2024-01-30T10:43:58;6.30;99.90
7240;DHT22;3661;53.288;10.458;2024-01-30T10:46:36;6.30;99.90
7240;DHT22;3661;53.288;10.458;2024-01-30T10:49:09;6.40;99.90
7240;DHT22;3661;53.288;10.458;2024-01-30T10:51:42;6.50;99.90
7240;DHT22;3661;53.288;10.458;2024-01-30T10:54:15;6.60;99.90
7240;DHT22;3661;53.288;10.458;2024-01-30T10:56:51;6.70;99.90
7240;DHT22;3661;53.288;10.458;2024-01-30T10:59:23;6.80;99.90
7240;DHT22;3661;53.288;10.458;2024-01-30T11:01:56;6.90;99.90
7240;DHT22;3661;53.288;10.458;2024-01-30T11:04:36;7.00;99.90
7240;DHT22;3661;53.288;10.458;2024-01-30T11:07:14;7.10;99.90
7240;DHT22;3661;53.288;10.458;2024-01-30T11:09:50;7.20;99.90
7240;DHT22;3661;53.288;10.458;2024-01-30T11:12:24;7.30;99.90
7240;DHT22;3661;53.288;10.458;2024-01-30T11:15:03;7.40;99.90
7240;DHT22;3661;53.288;10.458;2024-01-30T11:17:50;7.50;99.90
7240;DHT22;3661;53.288;10.458;2024-01-30T11:20:25;7.60;99.90
7240;DHT22;3661;53.288;10.458;2024-01-30T11:22:59;7.70;99.90
7240;DHT22;3661;53.288;10.458;2024-01-30T11:25:33;7.70;99.90
7240;DHT22;3661;53.288;10.458;2024-01-30T11:28:13;7.80;99.90
7240;DHT22;3661;53.288;10.458;2024-01-30T11:30:46;7.90;99.90
7240;DHT22;3661;53.288;10.458;2024-01-30T11:33:28;8.00;99.90
7240;DHT22;3661;53.288;10.458;2024-01-30T11:36:02;8.10;99.90
7240;DHT22;3661;53.288;10.458;2024-01-30T11:38:37;8.10;99.90
7240;DHT22;3661;53.288;10.458;2024-01-30T11:41:09;8.20;99.90
7240;DHT22;3661;53.288;10.458;2024-01-30T11:43:43;8.20;99.90
7240;DHT22;3661;53.288;10.458;2024-01-30T11:46:15;8.30;99.90
7240;DHT22;3661;53.288;10.458;2024-01-30T11:48:47;8.40;99.90
7240;DHT22;3661;53.288;10.458;2024-01-30T11:51:19;8.50;99.90
7240;DHT22;3661;53.288;10.458;2024-01-30T11:53:51;8.50;99.90
7240;DHT22;3661;53.288;10.458;2024-01-30T11:56:24;8.60;99.90
7240;DHT22;3661;53.288;10.458;2024-01-30T11:58:58;8.60;99.90
7240;DHT22;3661;53.288;10.458;2024-01-30T12:01:32;8.70;99.90
7240;DHT22;3661;53.288;10.458;2024-01-30T12:04:04;8.80;99.90
7240;DHT22;3661;53.288;10.458;2024-01-30T12:06:39;8.80;99.90
7240;DHT22;3661;53.288;10.458;2024-01-30T12:09:12;8.90;99.90
7240;DHT22;3661;53.288;10.458;2024-01-30T12:11:44;8.90;99.90
7240;DHT22;3661;53.288;10.458;2024-01-30T12:14:18;9.00;99.90
7240;DHT22;3661;53.288;10.458;2024-01-30T12:16:52;9.00;99.90
7240;DHT22;3661;53.288;10.458;2024-01-30T12:19:25;9.10;99.90
7240;DHT22;3661;53.288;10.458;2024-01-30T12:21:57;9.10;99.90
7240;DHT22;3661;53.288;10.458;2024-01-30T12:24:30;9.10;99.90
7240;DHT22;3661;53.288;10.458;2024-01-30T12:27:02;9.20;99.90
7240;DHT22;3661;53.288;10.458;2024-01-30T12:29:36;9.20;99.90
7240;DHT22;3661;53.288;10.458;2024-01-30T12:32:08;9.30;99.90
7240;DHT22;3661;53.288;10.458;2024-01-30T12:34:40;9.30;99.90
7240;DHT22;3661;53.288;10.458;2024-01-30T12:37:13;9.30;99.90
7240;DHT22;3661;53.288;10.458;2024-01-30T12:39:51;9.40;99.90
7240;DHT22;3661;53.288;10.458;2024-01-30T12:42:23;9.40;99.90
7240;DHT22;3661;53.288;10.458;2024-01-30T12:44:58;9.40;99.90
7240;DHT22;3661;53.288;10.458;2024-01-30T12:47:30;9.50;99.90
7240;DHT22;3661;53.288;10.458;2024-01-30T12:50:03;9.50;99.90
7240;DHT22;3661;53.288;10.458;2024-01-30T12:52:35;9.60;99.90
7240;DHT22;3661;53.288;10.458;2024-01-30T12:55:07;9.60;99.90
7240;DHT22;3661;53.288;10.458;2024-01-30T12:57:39;9.60;99.90
7240;DHT22;3661;53.288;10.458;2024-01-30T13:00:14;9.60;99.90
7240;DHT22;3661;53.288;10.458;2024-01-30T13:02:47;9.70;99.90
7240;DHT22;3661;53.288;10.458;2024-01-30T13:05:20;9.70;99.90
7240;DHT22;3661;53.288;10.458;2024-01-30T13:07:58;9.70;99.90
7240;DHT22;3661;53.288;10.458;2024-01-30T13:10:30;9.80;99.90
7240;DHT22;3661;53.288;10.458;2024-01-30T13:13:02;9.80;99.90
7240;DHT22;3661;53.288;10.458;2024-01-30T13:15:36;9.90;99.90
7240;DHT22;3661;53.288;10.458;2024-01-30T13:18:08;9.90;99.90
7240;DHT22;3661;53.288;10.458;2024-01-30T13:20:40;9.90;99.90
7240;DHT22;3661;53.288;10.458;2024-01-30T13:23:13;9.90;99.90
7240;DHT22;3661;53.288;10.458;2024-01-30T13:25:46;9.90;99.90
7240;DHT22;3661;53.288;10.458;2024-01-30T13:28:18;10.00;99.90
7240;DHT22;3661;53.288;10.458;2024-01-30T13:30:52;10.00;99.90
7240;DHT22;3661;53.288;10.458;2024-01-30T13:33:24;10.00;99.90
7240;DHT22;3661;53.288;10.458;2024-01-30T13:35:56;10.00;99.90
7240;DHT22;3661;53.288;10.458;2024-01-30T13:38:29;10.00;99.90
7240;DHT22;3661;53.288;10.458;2024-01-30T13:41:01;10.00;99.90
7240;DHT22;3661;53.288;10.458;2024-01-30T13:43:33;10.10;99.90
7240;DHT22;3661;53.288;10.458;2024-01-30T13:46:07;10.00;99.90
7240;DHT22;3661;53.288;10.458;2024-01-30T13:48:39;10.00;99.90
7240;DHT22;3661;53.288;10.458;2024-01-30T13:51:11;10.10;99.90
7240;DHT22;3661;53.288;10.458;2024-01-30T13:53:43;10.10;99.90
7240;DHT22;3661;53.288;10.458;2024-01-30T13:56:16;10.10;99.90
7240;DHT22;3661;53.288;10.458;2024-01-30T13:58:48;10.10;99.90
7240;DHT22;3661;53.288;10.458;2024-01-30T14:01:22;10.10;99.90
7240;DHT22;3661;53.288;10.458;2024-01-30T14:03:54;10.10;99.90
7240;DHT22;3661;53.288;10.458;2024-01-30T14:06:27;10.10;99.90
7240;DHT22;3661;53.288;10.458;2024-01-30T14:08:59;10.10;99.90
7240;DHT22;3661;53.288;10.458;2024-01-30T14:11:31;10.10;99.90
7240;DHT22;3661;53.288;10.458;2024-01-30T14:14:03;10.10;99.90
7240;DHT22;3661;53.288;10.458;2024-01-30T14:16:36;10.10;99.90
7240;DHT22;3661;53.288;10.458;2024-01-30T14:19:09;10.10;99.90
7240;DHT22;3661;53.288;10.458;2024-01-30T14:21:43;10.10;99.90
7240;DHT22;3661;53.288;10.458;2024-01-30T14:24:15;10.10;99.90
7240;DHT22;3661;53.288;10.458;2024-01-30T14:26:47;10.10;99.90
7240;DHT22;3661;53.288;10.458;2024-01-30T14:29:19;10.10;99.90
7240;DHT22;3661;53.288;10.458;2024-01-30T14:31:53;10.10;99.90
7240;DHT22;3661;53.288;10.458;2024-01-30T14:34:25;10.10;99.90
7240;DHT22;3661;53.288;10.458;2024-01-30T14:36:58;10.10;99.90
7240;DHT22;3661;53.288;10.458;2024-01-30T14:39:30;10.10;99.90
7240;DHT22;3661;53.288;10.458;2024-01-30T14:42:03;10.10;99.90
7240;DHT22;3661;53.288;10.458;2024-01-30T14:44:35;10.10;99.90
7240;DHT22;3661;53.288;10.458;2024-01-30T14:47:09;10.10;99.90
7240;DHT22;3661;53.288;10.458;2024-01-30T14:49:43;10.10;99.90
7240;DHT22;3661;53.288;10.458;2024-01-30T14:52:15;10.10;99.90
7240;DHT22;3661;53.288;10.458;2024-01-30T14:54:47;10.10;99.90
7240;DHT22;3661;53.288;10.458;2024-01-30T14:57:20;10.10;99.90
7240;DHT22;3661;53.288;10.458;2024-01-30T14:59:52;10.10;99.90
7240;DHT22;3661;53.288;10.458;2024-01-30T15:05:52;10.10;99.90
7240;DHT22;3661;53.288;10.458;2024-01-30T15:11:52;10.10;99.90
7240;DHT22;3661;53.288;10.458;2024-01-30T15:17:51;10.00;99.90
7240;DHT22;3661;53.288;10.458;2024-01-30T15:20:24;10.10;99.90
7240;DHT22;3661;53.288;10.458;2024-01-30T15:22:57;10.10;99.90
7240;DHT22;3661;53.288;10.458;2024-01-30T15:25:31;10.00;99.90
7240;DHT22;3661;53.288;10.458;2024-01-30T15:28:03;10.10;99.90
7240;DHT22;3661;53.288;10.458;2024-01-30T15:30:36;10.00;99.90
7240;DHT22;3661;53.288;10.458;2024-01-30T15:33:08;10.00;99.90
7240;DHT22;3661;53.288;10.458;2024-01-30T15:35:43;10.00;99.90
7240;DHT22;3661;53.288;10.458;2024-01-30T15:38:17;10.00;99.90
7240;DHT22;3661;53.288;10.458;2024-01-30T15:40:50;10.00;99.90
7240;DHT22;3661;53.288;10.458;2024-01-30T15:43:22;10.00;99.90
7240;DHT22;3661;53.288;10.458;2024-01-30T15:45:54;10.00;99.90
7240;DHT22;3661;53.288;10.458;2024-01-30T15:48:26;10.00;99.90
7240;DHT22;3661;53.288;10.458;2024-01-30T15:50:59;10.00;99.90
7240;DHT22;3661;53.288;10.458;2024-01-30T15:53:33;10.00;99.90
7240;DHT22;3661;53.288;10.458;2024-01-30T15:56:06;10.00;99.90
7240;DHT22;3661;53.288;10.458;2024-01-30T15:58:38;10.00;99.90
7240;DHT22;3661;53.288;10.458;2024-01-30T16:01:10;10.00;99.90
7240;DHT22;3661;53.288;10.458;2024-01-30T16:03:45;10.00;99.90
7240;DHT22;3661;53.288;10.458;2024-01-30T16:06:17;10.00;99.90
7240;DHT22;3661;53.288;10.458;2024-01-30T16:08:50;10.00;99.90
7240;DHT22;3661;53.288;10.458;2024-01-30T16:11:22;10.00;99.90
7240;DHT22;3661;53.288;10.458;2024-01-30T16:13:54;10.00;99.90
7240;DHT22;3661;53.288;10.458;2024-01-30T16:16:27;10.00;99.90
7240;DHT22;3661;53.288;10.458;2024-01-30T16:18:59;10.00;99.90
7240;DHT22;3661;53.288;10.458;2024-01-30T16:21:31;10.00;99.90
7240;DHT22;3661;53.288;10.458;2024-01-30T16:24:05;10.00;99.90
7240;DHT22;3661;53.288;10.458;2024-01-30T16:26:37;10.00;99.90
7240;DHT22;3661;53.288;10.458;2024-01-30T16:29:10;10.00;99.90
7240;DHT22;3661;53.288;10.458;2024-01-30T16:31:42;10.00;99.90
7240;DHT22;3661;53.288;10.458;2024-01-30T16:34:14;10.00;99.90
7240;DHT22;3661;53.288;10.458;2024-01-30T16:36:46;10.00;99.90
7240;DHT22;3661;53.288;10.458;2024-01-30T16:39:19;10.00;99.90
7240;DHT22;3661;53.288;10.458;2024-01-30T16:41:51;10.00;99.90
7240;DHT22;3661;53.288;10.458;2024-01-30T16:44:23;10.00;99.90
7240;DHT22;3661;53.288;10.458;2024-01-30T16:46:55;10.00;99.90
7240;DHT22;3661;53.288;10.458;2024-01-30T16:49:27;9.90;99.90
7240;DHT22;3661;53.288;10.458;2024-01-30T16:51:59;9.90;99.90
7240;DHT22;3661;53.288;10.458;2024-01-30T16:54:33;9.90;99.90
7240;DHT22;3661;53.288;10.458;2024-01-30T16:57:05;9.90;99.90
7240;DHT22;3661;53.288;10.458;2024-01-30T16:59:37;9.90;99.90
7240;DHT22;3661;53.288;10.458;2024-01-30T17:02:09;9.80;99.90
7240;DHT22;3661;53.288;10.458;2024-01-30T17:04:41;9.80;99.90
7240;DHT22;3661;53.288;10.458;2024-01-30T17:07:13;9.80;99.90
7240;DHT22;3661;53.288;10.458;2024-01-30T17:09:47;9.80;99.90
7240;DHT22;3661;53.288;10.458;2024-01-30T17:12:19;9.80;99.90
7240;DHT22;3661;53.288;10.458;2024-01-30T17:14:51;9.80;99.90